createdAt,value
2022-10-01T00:02:14.110Z,4.83
2022-10-01T00:04:40.507Z,5.03
2022-10-01T00:07:10.791Z,4.07
2022-10-01T00:09:37.231Z,5.27
2022-10-01T00:12:03.852Z,4.80
2022-10-01T00:14:30.299Z,5.03
2022-10-01T00:16:56.692Z,4.03
2022-10-01T00:19:23.054Z,4.20
2022-10-01T00:21:49.505Z,3.83
2022-10-01T00:24:15.845Z,4.63
2022-10-01T00:26:42.423Z,4.27
2022-10-01T00:29:11.379Z,4.03
2022-10-01T00:31:38.436Z,4.20
2022-10-01T00:34:05.143Z,4.10
2022-10-01T00:36:31.808Z,3.90
2022-10-01T00:39:01.960Z,3.90
2022-10-01T00:41:30.362Z,3.33
2022-10-01T00:44:00.919Z,3.30
2022-10-01T00:46:33.127Z,3.43
2022-10-01T00:49:02.215Z,3.40
2022-10-01T00:51:30.074Z,3.20
2022-10-01T00:54:01.907Z,3.60
2022-10-01T00:56:28.911Z,3.00
2022-10-01T00:58:56.020Z,3.30
2022-10-01T01:01:24.269Z,3.67
2022-10-01T01:03:51.010Z,3.63
2022-10-01T01:06:17.505Z,3.53
2022-10-01T01:08:43.954Z,3.70
2022-10-01T01:11:13.309Z,3.60
2022-10-01T01:13:52.941Z,3.93
2022-10-01T01:16:25.805Z,3.43
2022-10-01T01:19:02.586Z,3.30
2022-10-01T01:21:31.152Z,3.53
2022-10-01T01:24:16.324Z,3.47
2022-10-01T01:26:50.383Z,3.33
2022-10-01T01:29:35.578Z,3.97
2022-10-01T01:32:09.463Z,3.63
2022-10-01T01:34:39.787Z,3.40
2022-10-01T01:37:12.244Z,3.07
2022-10-01T01:39:40.157Z,5.83
2022-10-01T01:42:11.816Z,3.37
2022-10-01T01:44:39.727Z,3.23
2022-10-01T01:47:07.433Z,3.00
2022-10-01T01:49:34.367Z,3.20
2022-10-01T01:52:05.730Z,3.17
2022-10-01T01:54:32.374Z,3.57
2022-10-01T01:56:59.153Z,3.50
2022-10-01T01:59:26.867Z,2.53
2022-10-01T02:01:53.299Z,2.73
2022-10-01T02:04:28.058Z,3.50
2022-10-01T02:06:54.361Z,6.93
2022-10-01T02:09:28.121Z,4.20
2022-10-01T02:12:08.104Z,3.40
2022-10-01T02:14:43.029Z,3.17
2022-10-01T02:17:16.633Z,2.80
2022-10-01T02:19:52.875Z,3.03
2022-10-01T02:22:22.154Z,2.83
2022-10-01T02:24:56.988Z,3.43
2022-10-01T02:27:28.977Z,3.27
2022-10-01T02:29:57.592Z,2.87
2022-10-01T02:32:24.188Z,3.00
2022-10-01T02:34:51.836Z,3.07
2022-10-01T02:37:21.329Z,2.90
2022-10-01T02:39:48.449Z,2.63
2022-10-01T02:42:16.335Z,2.90
2022-10-01T02:44:45.026Z,2.93
2022-10-01T02:47:23.163Z,3.03
2022-10-01T02:49:49.811Z,3.17
2022-10-01T02:52:19.119Z,2.97
2022-10-01T02:54:50.111Z,5.23
2022-10-01T02:57:23.052Z,17.10
2022-10-01T02:59:50.203Z,4.07
2022-10-01T03:02:16.648Z,3.07
2022-10-01T03:04:43.061Z,2.83
2022-10-01T03:07:09.382Z,3.10
2022-10-01T03:09:36.820Z,3.23
2022-10-01T03:12:03.239Z,2.83
2022-10-01T03:14:29.560Z,2.93
2022-10-01T03:16:55.895Z,4.37
2022-10-01T03:19:22.277Z,3.37
2022-10-01T03:21:48.603Z,3.53
2022-10-01T03:24:14.944Z,2.80
2022-10-01T03:26:41.401Z,2.77
2022-10-01T03:29:07.891Z,2.73
2022-10-01T03:31:34.447Z,2.70
2022-10-01T03:34:01.046Z,3.00
2022-10-01T03:36:27.728Z,3.10
2022-10-01T03:38:54.073Z,2.47
2022-10-01T03:41:20.407Z,2.67
2022-10-01T03:43:46.736Z,2.67
2022-10-01T03:46:13.245Z,2.97
2022-10-01T03:48:39.674Z,2.83
2022-10-01T03:51:06.493Z,3.10
2022-10-01T03:53:33.159Z,2.90
2022-10-01T03:56:00.103Z,3.03
2022-10-01T03:58:26.538Z,3.20
2022-10-01T04:00:56.579Z,3.10
2022-10-01T04:03:23.023Z,3.03
2022-10-01T04:05:49.388Z,2.57
2022-10-01T04:08:15.748Z,3.10
2022-10-01T04:10:42.112Z,3.10
2022-10-01T04:13:08.674Z,2.93
2022-10-01T04:15:35.055Z,3.37
2022-10-01T04:18:06.201Z,3.03
2022-10-01T04:20:37.445Z,3.20
2022-10-01T04:23:06.901Z,2.87
2022-10-01T04:25:33.315Z,3.30
2022-10-01T04:28:04.434Z,3.00
2022-10-01T04:30:32.026Z,3.57
2022-10-01T04:32:58.645Z,3.30
2022-10-01T04:35:25.804Z,3.17
2022-10-01T04:37:55.740Z,3.40
2022-10-01T04:40:22.079Z,3.67
2022-10-01T04:42:48.399Z,3.77
2022-10-01T04:45:14.787Z,3.27
2022-10-01T04:47:48.238Z,3.33
2022-10-01T04:50:15.876Z,3.40
2022-10-01T04:52:42.200Z,4.07
2022-10-01T04:55:08.963Z,3.40
2022-10-01T04:57:36.184Z,3.20
2022-10-01T05:00:04.180Z,3.47
2022-10-01T05:02:30.586Z,3.43
2022-10-01T05:04:56.980Z,3.70
2022-10-01T05:07:23.291Z,3.40
2022-10-01T05:09:49.605Z,3.60
2022-10-01T05:12:15.922Z,3.30
2022-10-01T05:14:42.315Z,4.03
2022-10-01T05:17:09.122Z,3.50
2022-10-01T05:19:35.440Z,3.57
2022-10-01T05:22:01.777Z,3.80
2022-10-01T05:24:29.181Z,3.37
2022-10-01T05:26:55.534Z,3.57
2022-10-01T05:29:21.983Z,3.50
2022-10-01T05:31:48.460Z,3.10
2022-10-01T05:34:14.851Z,3.40
2022-10-01T05:36:41.199Z,3.50
2022-10-01T05:39:07.532Z,3.80
2022-10-01T05:41:34.129Z,3.83
2022-10-01T05:44:00.752Z,4.30
2022-10-01T05:46:27.435Z,3.60
2022-10-01T05:48:53.778Z,4.03
2022-10-01T05:51:20.098Z,3.97
2022-10-01T05:53:50.549Z,4.60
2022-10-01T05:56:17.022Z,4.80
2022-10-01T05:58:43.397Z,9.73
2022-10-01T06:01:09.789Z,9.10
2022-10-01T06:03:36.232Z,4.37
2022-10-01T06:06:02.565Z,4.20
2022-10-01T06:08:28.974Z,4.80
2022-10-01T06:10:58.881Z,4.63
2022-10-01T06:13:26.479Z,4.67
2022-10-01T06:15:52.923Z,5.17
2022-10-01T06:18:19.278Z,5.50
2022-10-01T06:20:45.643Z,5.47
2022-10-01T06:23:12.660Z,5.80
2022-10-01T06:25:42.909Z,6.03
2022-10-01T06:28:10.955Z,6.00
2022-10-01T06:30:38.628Z,6.20
2022-10-01T06:33:06.376Z,5.73
2022-10-01T06:35:33.061Z,5.60
2022-10-01T06:38:01.725Z,5.80
2022-10-01T06:40:31.665Z,7.03
2022-10-01T06:42:58.495Z,6.60
2022-10-01T06:45:25.416Z,5.23
2022-10-01T06:47:55.745Z,6.27
2022-10-01T06:50:22.395Z,6.30
2022-10-01T06:52:51.610Z,6.30
2022-10-01T06:55:22.433Z,5.77
2022-10-01T06:57:53.766Z,6.43
2022-10-01T07:00:20.150Z,6.00
2022-10-01T07:02:46.571Z,6.33
2022-10-01T07:05:13.360Z,5.77
2022-10-01T07:07:39.715Z,6.60
2022-10-01T07:10:06.983Z,6.40
2022-10-01T07:12:34.059Z,6.63
2022-10-01T07:15:00.824Z,6.73
2022-10-01T07:17:27.307Z,6.73
2022-10-01T07:19:53.670Z,7.37
2022-10-01T07:22:20.069Z,20.83
2022-10-01T07:24:46.534Z,6.77
2022-10-01T07:27:13.401Z,8.03
2022-10-01T07:29:39.742Z,7.30
2022-10-01T07:32:08.922Z,6.73
2022-10-01T07:34:36.508Z,7.27
2022-10-01T07:37:03.362Z,7.03
2022-10-01T07:39:30.614Z,6.90
2022-10-01T07:41:57.128Z,7.33
2022-10-01T07:44:23.531Z,7.83
2022-10-01T07:46:49.933Z,7.07
2022-10-01T07:49:16.846Z,7.83
2022-10-01T07:51:46.193Z,7.47
2022-10-01T07:54:12.897Z,7.43
2022-10-01T07:56:39.294Z,7.03
2022-10-01T07:59:05.784Z,7.90
2022-10-01T08:01:33.250Z,7.50
2022-10-01T08:04:00.013Z,7.40
2022-10-01T08:06:26.366Z,7.73
2022-10-01T08:08:52.753Z,8.13
2022-10-01T08:11:19.155Z,7.23
2022-10-01T08:13:48.586Z,7.00
2022-10-01T08:16:14.965Z,7.50
2022-10-01T08:18:41.373Z,7.03
2022-10-01T08:21:07.898Z,7.17
2022-10-01T08:23:34.721Z,7.23
2022-10-01T08:26:02.138Z,6.70
2022-10-01T08:28:28.614Z,7.37
2022-10-01T08:30:56.142Z,6.67
2022-10-01T08:33:22.745Z,6.93
2022-10-01T08:35:49.513Z,6.77
2022-10-01T08:38:15.981Z,5.50
2022-10-01T08:40:46.583Z,5.47
2022-10-01T08:43:33.267Z,5.77
2022-10-01T08:46:16.702Z,4.47
2022-10-01T08:49:01.252Z,4.57
2022-10-01T08:51:31.299Z,4.43
2022-10-01T08:54:03.512Z,4.63
2022-10-01T08:56:50.176Z,4.60
2022-10-01T08:59:35.274Z,5.87
2022-10-01T09:02:01.689Z,5.47
2022-10-01T09:04:29.139Z,5.37
2022-10-01T09:07:02.928Z,4.57
2022-10-01T09:09:46.992Z,5.00
2022-10-01T09:12:28.145Z,4.57
2022-10-01T09:15:13.924Z,4.40
2022-10-01T09:17:53.403Z,3.93
2022-10-01T09:20:27.587Z,5.27
2022-10-01T09:23:13.538Z,4.30
2022-10-01T09:25:40.334Z,3.87
2022-10-01T09:28:25.418Z,4.87
2022-10-01T09:31:04.760Z,4.50
2022-10-01T09:33:33.243Z,5.33
2022-10-01T09:36:02.733Z,5.30
2022-10-01T09:38:38.439Z,5.00
2022-10-01T09:41:04.955Z,5.90
2022-10-01T09:43:32.851Z,5.20
2022-10-01T09:45:59.450Z,6.90
2022-10-01T09:48:41.482Z,8.03
2022-10-01T09:51:13.149Z,6.30
2022-10-01T09:53:43.958Z,6.80
2022-10-01T09:56:21.767Z,6.80
2022-10-01T09:58:50.780Z,7.63
2022-10-01T10:01:19.069Z,7.83
2022-10-01T10:03:53.210Z,8.43
2022-10-01T10:06:24.009Z,10.37
2022-10-01T10:08:51.207Z,10.07
2022-10-01T10:11:21.769Z,9.27
2022-10-01T10:13:52.862Z,9.83
2022-10-01T10:16:24.952Z,10.03
2022-10-01T10:18:52.459Z,9.47
2022-10-01T10:21:21.738Z,11.00
2022-10-01T10:23:50.961Z,11.40
2022-10-01T10:26:41.212Z,11.80
2022-10-01T10:29:24.233Z,10.43
2022-10-01T10:31:51.616Z,11.90
2022-10-01T10:34:21.612Z,11.07
2022-10-01T10:36:48.197Z,9.93
2022-10-01T10:39:25.855Z,9.97
2022-10-01T10:41:52.921Z,10.13
2022-10-01T10:44:21.389Z,9.80
2022-10-01T10:46:49.044Z,10.33
2022-10-01T10:49:21.776Z,9.83
2022-10-01T10:51:53.921Z,7.20
2022-10-01T10:54:20.576Z,8.57
2022-10-01T10:57:00.706Z,7.20
2022-10-01T10:59:27.078Z,7.83
2022-10-01T11:01:53.883Z,7.07
2022-10-01T11:04:22.823Z,6.00
2022-10-01T11:06:56.386Z,6.30
2022-10-01T11:09:24.313Z,6.53
2022-10-01T11:11:55.813Z,6.30
2022-10-01T11:14:25.281Z,5.87
2022-10-01T11:17:05.797Z,6.23
2022-10-01T11:19:44.276Z,5.83
2022-10-01T11:22:22.631Z,5.03
2022-10-01T11:25:24.609Z,4.97
2022-10-01T11:28:09.293Z,4.80
2022-10-01T11:30:42.203Z,3.93
2022-10-01T11:33:23.335Z,4.00
2022-10-01T11:35:52.903Z,3.73
2022-10-01T11:38:38.198Z,3.93
2022-10-01T11:41:23.106Z,3.17
2022-10-01T11:43:53.741Z,3.20
2022-10-01T11:46:27.431Z,3.00
2022-10-01T11:49:08.858Z,2.60
2022-10-01T11:51:39.905Z,2.73
2022-10-01T11:54:09.611Z,2.50
2022-10-01T11:57:01.359Z,2.20
2022-10-01T11:59:31.290Z,2.60
2022-10-01T12:02:01.154Z,2.83
2022-10-01T12:04:33.785Z,8.30
2022-10-01T12:07:03.216Z,2.87
2022-10-01T12:09:29.545Z,2.40
2022-10-01T12:12:07.976Z,2.40
2022-10-01T12:14:37.447Z,2.10
2022-10-01T12:17:12.260Z,2.27
2022-10-01T12:19:41.117Z,3.87
2022-10-01T12:22:25.091Z,1.87
2022-10-01T12:24:52.229Z,1.93
2022-10-01T12:27:33.634Z,2.10
2022-10-01T12:30:05.007Z,1.60
2022-10-01T12:32:41.306Z,2.00
2022-10-01T12:35:26.519Z,1.20
2022-10-01T12:38:11.821Z,1.83
2022-10-01T12:40:58.868Z,1.57
2022-10-01T12:43:28.239Z,1.20
2022-10-01T12:46:08.378Z,2.07
2022-10-01T12:48:47.549Z,1.60
2022-10-01T12:51:19.993Z,1.57
2022-10-01T12:53:52.295Z,3.90
2022-10-01T12:56:30.720Z,1.70
2022-10-01T12:59:06.982Z,1.40
2022-10-01T13:01:42.474Z,1.60
2022-10-01T13:04:08.836Z,1.40
2022-10-01T13:06:38.387Z,1.50
2022-10-01T13:09:17.063Z,1.63
2022-10-01T13:11:52.245Z,1.73
2022-10-01T13:14:19.352Z,1.23
2022-10-01T13:17:01.461Z,1.30
2022-10-01T13:19:45.004Z,1.27
2022-10-01T13:22:26.397Z,1.07
2022-10-01T13:25:01.351Z,1.50
2022-10-01T13:27:35.335Z,1.80
2022-10-01T13:30:04.559Z,1.50
2022-10-01T13:32:51.301Z,1.13
2022-10-01T13:35:23.096Z,1.63
2022-10-01T13:37:49.484Z,1.70
2022-10-01T13:40:32.296Z,1.53
2022-10-01T13:43:01.517Z,1.40
2022-10-01T13:45:29.793Z,1.57
2022-10-01T13:48:11.269Z,1.77
2022-10-01T13:50:55.406Z,1.57
2022-10-01T13:53:22.860Z,5.57
2022-10-01T13:55:50.611Z,2.20
2022-10-01T13:58:30.725Z,1.57
2022-10-01T14:00:58.697Z,1.83
2022-10-01T14:03:34.633Z,2.77
2022-10-01T14:06:02.261Z,1.57
2022-10-01T14:08:31.077Z,1.50
2022-10-01T14:11:24.507Z,2.30
2022-10-01T14:14:10.299Z,1.87
2022-10-01T14:16:44.755Z,2.00
2022-10-01T14:19:17.691Z,1.60
2022-10-01T14:21:49.891Z,1.37
2022-10-01T14:24:27.795Z,1.93
2022-10-01T14:26:57.974Z,1.90
2022-10-01T14:29:34.025Z,2.57
2022-10-01T14:32:21.048Z,2.17
2022-10-01T14:34:50.428Z,1.97
2022-10-01T14:37:18.195Z,2.07
2022-10-01T14:39:44.527Z,1.93
2022-10-01T14:42:17.064Z,2.30
2022-10-01T14:44:44.955Z,2.10
2022-10-01T14:47:18.182Z,3.30
2022-10-01T14:49:44.535Z,18.33
2022-10-01T14:52:13.875Z,1.60
2022-10-01T14:54:52.407Z,1.80
2022-10-01T14:57:25.001Z,1.20
2022-10-01T14:59:51.380Z,1.33
2022-10-01T15:02:22.207Z,1.20
2022-10-01T15:04:50.548Z,1.37
2022-10-01T15:07:17.766Z,1.00
2022-10-01T15:09:44.727Z,1.00
2022-10-01T15:12:13.001Z,1.30
2022-10-01T15:14:40.362Z,1.10
2022-10-01T15:17:07.613Z,1.63
2022-10-01T15:19:41.131Z,1.03
2022-10-01T15:22:09.066Z,1.40
2022-10-01T15:24:35.400Z,7.50
2022-10-01T15:27:01.777Z,1.30
2022-10-01T15:29:28.213Z,1.10
2022-10-01T15:31:56.585Z,1.90
2022-10-01T15:34:24.067Z,1.33
2022-10-01T15:36:50.687Z,3.70
2022-10-01T15:39:25.353Z,1.50
2022-10-01T15:41:52.579Z,1.80
2022-10-01T15:44:38.867Z,1.20
2022-10-01T15:47:20.567Z,1.30
2022-10-01T15:50:15.299Z,1.57
2022-10-01T15:52:51.105Z,1.33
2022-10-01T15:55:23.420Z,1.87
2022-10-01T15:57:52.507Z,1.57
2022-10-01T16:00:23.115Z,1.50
2022-10-01T16:02:50.079Z,2.00
2022-10-01T16:05:18.214Z,2.40
2022-10-01T16:07:46.905Z,1.90
2022-10-01T16:10:15.008Z,1.70
2022-10-01T16:12:42.325Z,1.77
2022-10-01T16:15:23.410Z,1.50
2022-10-01T16:18:00.782Z,1.90
2022-10-01T16:20:34.705Z,1.40
2022-10-01T16:23:25.661Z,1.67
2022-10-01T16:25:52.042Z,1.70
2022-10-01T16:28:21.581Z,1.80
2022-10-01T16:30:50.420Z,2.00
2022-10-01T16:33:16.791Z,2.10
2022-10-01T16:35:45.654Z,1.90
2022-10-01T16:38:12.633Z,1.70
2022-10-01T16:40:40.062Z,1.33
2022-10-01T16:43:07.614Z,1.70
2022-10-01T16:45:36.670Z,1.80
2022-10-01T16:48:09.982Z,2.07
2022-10-01T16:50:36.309Z,1.83
2022-10-01T16:53:04.274Z,1.70
2022-10-01T16:55:38.056Z,1.67
2022-10-01T16:58:04.969Z,1.60
2022-10-01T17:00:32.507Z,4.93
2022-10-01T17:02:59.773Z,9.17
2022-10-01T17:05:27.536Z,2.00
2022-10-01T17:07:54.570Z,2.10
2022-10-01T17:10:24.895Z,1.70
2022-10-01T17:12:51.966Z,2.20
2022-10-01T17:15:19.860Z,1.80
2022-10-01T17:17:46.708Z,2.20
2022-10-01T17:20:13.513Z,1.87
2022-10-01T17:22:40.386Z,2.03
2022-10-01T17:25:07.186Z,2.17
2022-10-01T17:27:33.586Z,2.10
2022-10-01T17:29:59.949Z,2.27
2022-10-01T17:32:26.282Z,2.83
2022-10-01T17:34:54.566Z,2.40
2022-10-01T17:37:23.837Z,2.57
2022-10-01T17:39:50.398Z,2.20
2022-10-01T17:42:18.054Z,2.37
2022-10-01T17:44:44.770Z,2.50
2022-10-01T17:47:11.198Z,3.23
2022-10-01T17:49:37.607Z,2.10
2022-10-01T17:52:05.750Z,2.70
2022-10-01T17:54:32.425Z,2.63
2022-10-01T17:56:58.783Z,2.97
2022-10-01T17:59:25.593Z,3.70
2022-10-01T18:01:53.096Z,2.97
2022-10-01T18:04:19.567Z,3.27
2022-10-01T18:06:48.558Z,28.13
2022-10-01T18:09:15.435Z,15.47
2022-10-01T18:11:41.827Z,2.83
2022-10-01T18:14:08.224Z,3.23
2022-10-01T18:16:34.814Z,2.57
2022-10-01T18:21:48.878Z,3.37
2022-10-01T18:24:16.182Z,2.80
2022-10-01T18:26:42.839Z,3.47
2022-10-01T18:29:11.174Z,2.30
2022-10-01T18:31:40.652Z,2.97
2022-10-01T18:34:39.586Z,2.80
2022-10-01T18:37:07.285Z,3.33
2022-10-01T18:39:38.810Z,2.57
2022-10-01T18:42:27.293Z,2.00
2022-10-01T18:44:58.180Z,3.10
2022-10-01T18:47:24.531Z,2.90
2022-10-01T18:50:23.505Z,4.67
2022-10-01T18:52:52.748Z,2.33
2022-10-01T18:55:25.352Z,8.03
2022-10-01T18:57:54.703Z,2.87
2022-10-01T19:00:23.431Z,2.90
2022-10-01T19:02:50.591Z,3.03
2022-10-01T19:05:32.377Z,3.10
2022-10-01T19:08:01.738Z,4.23
2022-10-01T19:10:34.905Z,2.97
2022-10-01T19:13:11.714Z,2.67
2022-10-01T19:15:56.792Z,3.70
2022-10-01T19:18:29.387Z,2.97
2022-10-01T19:21:14.700Z,2.27
2022-10-01T19:23:59.673Z,3.47
2022-10-01T19:26:36.354Z,2.87
2022-10-01T19:29:09.903Z,3.23
2022-10-01T19:31:45.196Z,3.17
2022-10-01T19:34:20.842Z,3.90
2022-10-01T19:36:52.039Z,3.37
2022-10-01T19:39:23.364Z,2.60
2022-10-01T19:42:01.388Z,2.80
2022-10-01T19:44:48.201Z,2.60
2022-10-01T19:47:19.519Z,3.13
2022-10-01T19:49:46.289Z,3.13
2022-10-01T19:52:13.766Z,3.13
2022-10-01T19:54:45.103Z,3.70
2022-10-01T19:57:20.472Z,3.20
2022-10-01T19:59:47.351Z,2.50
2022-10-01T20:02:15.309Z,2.83
2022-10-01T20:04:51.747Z,2.20
2022-10-01T20:07:21.227Z,2.27
2022-10-01T20:09:51.456Z,2.70
2022-10-01T20:12:22.931Z,3.37
2022-10-01T20:15:11.670Z,3.00
2022-10-01T20:17:50.353Z,2.47
2022-10-01T20:20:20.701Z,1.90
2022-10-01T20:23:05.377Z,2.00
2022-10-01T20:25:37.881Z,2.80
2022-10-01T20:28:04.320Z,2.60
2022-10-01T20:30:33.630Z,2.03
2022-10-01T20:33:11.759Z,2.90
2022-10-01T20:35:47.774Z,2.70
2022-10-01T20:38:34.531Z,2.60
2022-10-01T20:41:05.186Z,5.03
2022-10-01T20:43:31.483Z,3.23
2022-10-01T20:45:59.335Z,2.37
2022-10-01T20:48:29.520Z,2.43
2022-10-01T20:51:00.715Z,2.73
2022-10-01T20:54:05.592Z,2.00
2022-10-01T20:56:33.962Z,2.13
2022-10-01T20:59:35.927Z,2.20
2022-10-01T21:02:04.228Z,2.30
2022-10-01T21:04:33.354Z,2.10
2022-10-01T21:07:10.913Z,2.50
2022-10-01T21:09:41.173Z,2.37
2022-10-01T21:12:15.259Z,2.20
2022-10-01T21:14:49.783Z,2.23
2022-10-01T21:17:31.076Z,1.93
2022-10-01T21:19:57.583Z,2.50
2022-10-01T21:22:40.551Z,2.30
2022-10-01T21:25:09.588Z,2.20
2022-10-01T21:27:48.184Z,2.93
2022-10-01T21:30:16.190Z,2.30
2022-10-01T21:32:45.374Z,2.77
2022-10-01T21:35:17.362Z,1.80
2022-10-01T21:37:55.417Z,2.03
2022-10-01T21:40:22.181Z,2.00
2022-10-01T21:43:04.958Z,2.60
2022-10-01T21:45:50.025Z,2.53
2022-10-01T21:48:24.537Z,2.10
2022-10-01T21:50:53.291Z,2.77
2022-10-01T21:53:37.847Z,2.30
2022-10-01T21:56:08.138Z,2.47
2022-10-01T21:58:35.154Z,1.70
2022-10-01T22:01:15.954Z,2.47
2022-10-01T22:04:02.620Z,2.50
2022-10-01T22:06:36.358Z,2.47
2022-10-01T22:09:10.463Z,15.13
2022-10-01T22:11:39.263Z,2.90
2022-10-01T22:14:13.792Z,3.27
2022-10-01T22:16:48.194Z,2.53
2022-10-01T22:19:16.469Z,2.00
2022-10-01T22:21:44.716Z,2.10
2022-10-01T22:24:33.626Z,2.30
2022-10-01T22:27:12.171Z,3.07
2022-10-01T22:29:44.675Z,2.90
2022-10-01T22:32:13.777Z,2.97
2022-10-01T22:34:46.853Z,2.93
2022-10-01T22:37:24.627Z,3.13
2022-10-01T22:39:54.878Z,2.93
2022-10-01T22:42:25.139Z,3.13
2022-10-01T22:44:52.186Z,2.57
2022-10-01T22:47:31.707Z,2.33
2022-10-01T22:50:07.161Z,2.13
2022-10-01T22:52:46.124Z,2.93
2022-10-01T22:55:18.007Z,3.00
2022-10-01T22:57:54.337Z,2.60
2022-10-01T23:00:21.397Z,2.90
2022-10-01T23:03:00.467Z,2.40
2022-10-01T23:05:35.702Z,2.70
2022-10-01T23:08:02.038Z,2.80
2022-10-01T23:10:47.145Z,3.63
2022-10-01T23:13:25.968Z,2.80
2022-10-01T23:15:56.538Z,3.67
2022-10-01T23:18:25.783Z,3.50
2022-10-01T23:21:16.411Z,3.47
2022-10-01T23:23:46.446Z,3.33
2022-10-01T23:26:15.831Z,3.17
2022-10-01T23:28:48.954Z,3.20
2022-10-01T23:31:34.117Z,3.07
2022-10-01T23:34:17.861Z,3.17
2022-10-01T23:36:48.959Z,2.90
2022-10-01T23:39:18.053Z,2.60
2022-10-01T23:41:56.618Z,3.97
2022-10-01T23:44:26.022Z,2.73
2022-10-01T23:46:53.853Z,3.43
2022-10-01T23:49:23.789Z,3.10
2022-10-01T23:51:55.306Z,3.80
2022-10-01T23:54:26.393Z,3.70
2022-10-01T23:57:15.826Z,3.23
